sensor_id;sensor_type;location;lat;lon;timestamp;pressure;altitude;pressure_sealevel;temperature;humidity
70103;BME280;57470;50.034;15.256;2023-03-04T00:01:31;99822.75;;;0.86;94.36
70103;BME280;57470;50.034;15.256;2023-03-04T00:03:56;99817.25;;;0.61;94.90
70103;BME280;57470;50.034;15.256;2023-03-04T00:06:22;99816.88;;;0.38;95.70
70103;BME280;57470;50.034;15.256;2023-03-04T00:08:47;99816.63;;;0.50;95.45
70103;BME280;57470;50.034;15.256;2023-03-04T00:11:12;99814.22;;;0.40;96.37
70103;BME280;57470;50.034;15.256;2023-03-04T00:13:38;99806.31;;;0.43;96.66
70103;BME280;57470;50.034;15.256;2023-03-04T00:16:03;99812.34;;;0.46;96.13
70103;BME280;57470;50.034;15.256;2023-03-04T00:18:29;99816.50;;;0.55;95.56
70103;BME280;57470;50.034;15.256;2023-03-04T00:20:54;99814.16;;;0.43;95.63
70103;BME280;57470;50.034;15.256;2023-03-04T00:23:20;99815.06;;;0.42;95.84
70103;BME280;57470;50.034;15.256;2023-03-04T00:25:45;99818.44;;;0.45;95.60
70103;BME280;57470;50.034;15.256;2023-03-04T00:28:10;99818.63;;;0.37;95.46
70103;BME280;57470;50.034;15.256;2023-03-04T00:30:36;99824.53;;;0.47;95.39
70103;BME280;57470;50.034;15.256;2023-03-04T00:33:01;99827.72;;;0.61;94.50
70103;BME280;57470;50.034;15.256;2023-03-04T00:35:26;99822.50;;;0.60;94.37
70103;BME280;57470;50.034;15.256;2023-03-04T00:37:52;99819.66;;;0.70;93.74
70103;BME280;57470;50.034;15.256;2023-03-04T00:40:17;99819.56;;;0.73;93.50
70103;BME280;57470;50.034;15.256;2023-03-04T00:42:43;99812.81;;;0.63;93.39
70103;BME280;57470;50.034;15.256;2023-03-04T00:45:08;99816.66;;;0.47;93.56
70103;BME280;57470;50.034;15.256;2023-03-04T00:47:34;99819.63;;;0.32;94.33
70103;BME280;57470;50.034;15.256;2023-03-04T00:49:59;99817.63;;;0.45;94.38
70103;BME280;57470;50.034;15.256;2023-03-04T00:52:25;99805.34;;;0.47;94.67
70103;BME280;57470;50.034;15.256;2023-03-04T00:54:50;99808.72;;;0.52;94.07
70103;BME280;57470;50.034;15.256;2023-03-04T00:57:16;99810.53;;;0.50;94.25
70103;BME280;57470;50.034;15.256;2023-03-04T00:59:41;99806.84;;;0.57;93.70
70103;BME280;57470;50.034;15.256;2023-03-04T01:02:08;99798.13;;;0.58;93.14
70103;BME280;57470;50.034;15.256;2023-03-04T01:04:34;99796.97;;;0.69;92.47
70103;BME280;57470;50.034;15.256;2023-03-04T01:06:59;99795.28;;;0.67;92.61
70103;BME280;57470;50.034;15.256;2023-03-04T01:09:25;99802.25;;;0.68;92.48
70103;BME280;57470;50.034;15.256;2023-03-04T01:11:51;99788.69;;;0.88;91.86
70103;BME280;57470;50.034;15.256;2023-03-04T01:14:17;99788.94;;;0.77;91.93
70103;BME280;57470;50.034;15.256;2023-03-04T01:16:42;99786.28;;;0.79;92.16
70103;BME280;57470;50.034;15.256;2023-03-04T01:19:08;99793.56;;;0.66;91.57
70103;BME280;57470;50.034;15.256;2023-03-04T01:21:33;99782.41;;;0.58;92.59
70103;BME280;57470;50.034;15.256;2023-03-04T01:23:58;99774.28;;;0.70;91.94
70103;BME280;57470;50.034;15.256;2023-03-04T01:26:24;99776.88;;;0.33;92.75
70103;BME280;57470;50.034;15.256;2023-03-04T01:28:49;99769.66;;;0.44;92.88
70103;BME280;57470;50.034;15.256;2023-03-04T01:31:14;99757.53;;;0.40;92.96
70103;BME280;57470;50.034;15.256;2023-03-04T01:33:40;99762.81;;;0.37;93.86
70103;BME280;57470;50.034;15.256;2023-03-04T01:36:05;99756.44;;;0.50;93.04
70103;BME280;57470;50.034;15.256;2023-03-04T01:38:31;99754.84;;;0.43;93.34
70103;BME280;57470;50.034;15.256;2023-03-04T01:40:56;99751.97;;;0.54;93.01
70103;BME280;57470;50.034;15.256;2023-03-04T01:43:24;99743.34;;;0.50;92.86
70103;BME280;57470;50.034;15.256;2023-03-04T01:45:52;99744.81;;;0.62;92.31
70103;BME280;57470;50.034;15.256;2023-03-04T01:48:22;99736.16;;;0.58;92.20
70103;BME280;57470;50.034;15.256;2023-03-04T01:50:49;99737.03;;;0.59;92.10
70103;BME280;57470;50.034;15.256;2023-03-04T01:53:22;99729.16;;;0.60;91.76
70103;BME280;57470;50.034;15.256;2023-03-04T01:55:48;99729.78;;;0.34;92.60
70103;BME280;57470;50.034;15.256;2023-03-04T01:58:14;99734.03;;;0.37;93.02
70103;BME280;57470;50.034;15.256;2023-03-04T02:00:39;99721.78;;;0.39;92.61
70103;BME280;57470;50.034;15.256;2023-03-04T02:03:14;99721.81;;;0.37;92.94
70103;BME280;57470;50.034;15.256;2023-03-04T02:05:43;99718.41;;;0.35;93.07
70103;BME280;57470;50.034;15.256;2023-03-04T02:08:11;99714.00;;;0.36;93.27
70103;BME280;57470;50.034;15.256;2023-03-04T02:10:38;99724.53;;;0.34;93.31
70103;BME280;57470;50.034;15.256;2023-03-04T02:13:03;99713.97;;;0.37;93.15
70103;BME280;57470;50.034;15.256;2023-03-04T02:15:30;99711.66;;;0.25;93.41
70103;BME280;57470;50.034;15.256;2023-03-04T02:17:56;99709.56;;;0.40;93.63
70103;BME280;57470;50.034;15.256;2023-03-04T02:20:27;99701.75;;;0.38;93.53
70103;BME280;57470;50.034;15.256;2023-03-04T02:23:18;99702.63;;;0.38;93.41
70103;BME280;57470;50.034;15.256;2023-03-04T02:25:51;99696.53;;;0.38;93.50
70103;BME280;57470;50.034;15.256;2023-03-04T02:28:19;99698.38;;;0.34;93.57
70103;BME280;57470;50.034;15.256;2023-03-04T02:30:45;99684.13;;;0.46;93.35
70103;BME280;57470;50.034;15.256;2023-03-04T02:33:16;99688.59;;;0.43;93.34
70103;BME280;57470;50.034;15.256;2023-03-04T02:35:41;99683.44;;;0.38;93.94
70103;BME280;57470;50.034;15.256;2023-03-04T02:38:09;99679.50;;;0.57;93.52
70103;BME280;57470;50.034;15.256;2023-03-04T02:40:34;99680.84;;;0.38;93.42
70103;BME280;57470;50.034;15.256;2023-03-04T02:43:00;99678.69;;;0.54;93.78
70103;BME280;57470;50.034;15.256;2023-03-04T02:45:30;99679.66;;;0.51;93.54
70103;BME280;57470;50.034;15.256;2023-03-04T02:47:58;99665.38;;;0.27;94.35
70103;BME280;57470;50.034;15.256;2023-03-04T02:50:23;99665.50;;;0.23;94.10
70103;BME280;57470;50.034;15.256;2023-03-04T02:52:51;99672.75;;;0.47;93.41
70103;BME280;57470;50.034;15.256;2023-03-04T02:55:17;99666.03;;;0.37;94.03
70103;BME280;57470;50.034;15.256;2023-03-04T02:57:43;99654.81;;;0.32;93.86
70103;BME280;57470;50.034;15.256;2023-03-04T03:00:11;99657.22;;;0.41;93.85
70103;BME280;57470;50.034;15.256;2023-03-04T03:02:37;99652.59;;;0.52;93.70
70103;BME280;57470;50.034;15.256;2023-03-04T03:05:04;99655.94;;;0.57;93.12
70103;BME280;57470;50.034;15.256;2023-03-04T03:07:31;99652.28;;;0.29;94.41
70103;BME280;57470;50.034;15.256;2023-03-04T03:10:00;99658.78;;;0.13;94.69
70103;BME280;57470;50.034;15.256;2023-03-04T03:12:27;99654.44;;;0.12;94.77
70103;BME280;57470;50.034;15.256;2023-03-04T03:14:54;99657.72;;;0.20;94.66
70103;BME280;57470;50.034;15.256;2023-03-04T03:17:21;99648.75;;;0.31;94.39
70103;BME280;57470;50.034;15.256;2023-03-04T03:19:47;99654.66;;;0.38;93.90
70103;BME280;57470;50.034;15.256;2023-03-04T03:22:14;99652.25;;;0.30;94.01
70103;BME280;57470;50.034;15.256;2023-03-04T03:24:41;99650.25;;;0.40;93.30
70103;BME280;57470;50.034;15.256;2023-03-04T03:27:07;99652.78;;;0.45;93.46
70103;BME280;57470;50.034;15.256;2023-03-04T03:29:34;99650.22;;;0.42;93.33
70103;BME280;57470;50.034;15.256;2023-03-04T03:32:01;99648.66;;;0.34;93.87
70103;BME280;57470;50.034;15.256;2023-03-04T03:34:28;99647.19;;;0.23;93.82
70103;BME280;57470;50.034;15.256;2023-03-04T03:36:55;99645.41;;;0.25;94.13
70103;BME280;57470;50.034;15.256;2023-03-04T03:39:21;99648.94;;;0.24;93.68
70103;BME280;57470;50.034;15.256;2023-03-04T03:41:46;99642.59;;;0.34;93.67
70103;BME280;57470;50.034;15.256;2023-03-04T03:44:12;99634.84;;;0.28;93.42
70103;BME280;57470;50.034;15.256;2023-03-04T03:46:37;99637.25;;;0.37;93.11
70103;BME280;57470;50.034;15.256;2023-03-04T03:49:03;99628.38;;;0.44;92.75
70103;BME280;57470;50.034;15.256;2023-03-04T03:51:28;99635.16;;;0.51;92.78
70103;BME280;57470;50.034;15.256;2023-03-04T03:53:53;99639.28;;;0.61;92.57
70103;BME280;57470;50.034;15.256;2023-03-04T03:56:19;99642.59;;;0.34;92.58
70103;BME280;57470;50.034;15.256;2023-03-04T03:58:44;99639.06;;;0.35;92.95
70103;BME280;57470;50.034;15.256;2023-03-04T04:01:09;99639.75;;;0.43;92.27
70103;BME280;57470;50.034;15.256;2023-03-04T04:03:35;99632.66;;;0.47;92.07
70103;BME280;57470;50.034;15.256;2023-03-04T04:06:00;99640.22;;;0.57;91.48
70103;BME280;57470;50.034;15.256;2023-03-04T04:08:26;99637.78;;;0.51;91.75
70103;BME280;57470;50.034;15.256;2023-03-04T04:10:51;99638.44;;;0.59;91.47
70103;BME280;57470;50.034;15.256;2023-03-04T04:13:17;99631.78;;;0.46;91.92
70103;BME280;57470;50.034;15.256;2023-03-04T04:15:42;99630.06;;;0.45;91.74
70103;BME280;57470;50.034;15.256;2023-03-04T04:18:08;99637.66;;;0.56;91.47
70103;BME280;57470;50.034;15.256;2023-03-04T04:20:33;99633.88;;;0.67;91.20
70103;BME280;57470;50.034;15.256;2023-03-04T04:22:59;99632.81;;;0.74;90.64
70103;BME280;57470;50.034;15.256;2023-03-04T04:25:25;99635.59;;;0.68;90.71
70103;BME280;57470;50.034;15.256;2023-03-04T04:27:50;99637.78;;;0.84;90.43
70103;BME280;57470;50.034;15.256;2023-03-04T04:30:16;99637.38;;;0.66;90.89
70103;BME280;57470;50.034;15.256;2023-03-04T04:32:41;99632.81;;;0.74;90.98
70103;BME280;57470;50.034;15.256;2023-03-04T04:35:07;99634.94;;;0.60;91.13
70103;BME280;57470;50.034;15.256;2023-03-04T04:37:32;99632.97;;;0.68;91.22
70103;BME280;57470;50.034;15.256;2023-03-04T04:39:58;99633.56;;;0.80;90.83
70103;BME280;57470;50.034;15.256;2023-03-04T04:42:23;99629.47;;;0.69;90.92
70103;BME280;57470;50.034;15.256;2023-03-04T04:44:49;99626.91;;;0.66;91.07
70103;BME280;57470;50.034;15.256;2023-03-04T04:47:14;99628.44;;;0.75;91.35
70103;BME280;57470;50.034;15.256;2023-03-04T04:49:40;99626.09;;;0.64;91.93
70103;BME280;57470;50.034;15.256;2023-03-04T04:52:05;99624.47;;;0.60;91.89
70103;BME280;57470;50.034;15.256;2023-03-04T04:54:31;99622.50;;;0.68;91.36
70103;BME280;57470;50.034;15.256;2023-03-04T04:56:56;99620.94;;;0.61;91.77
70103;BME280;57470;50.034;15.256;2023-03-04T04:59:22;99619.09;;;0.65;91.61
70103;BME280;57470;50.034;15.256;2023-03-04T05:01:47;99606.66;;;0.73;91.00
70103;BME280;57470;50.034;15.256;2023-03-04T05:04:13;99603.44;;;0.63;91.35
70103;BME280;57470;50.034;15.256;2023-03-04T05:06:39;99612.13;;;0.64;91.37
70103;BME280;57470;50.034;15.256;2023-03-04T05:09:04;99599.66;;;0.73;91.28
70103;BME280;57470;50.034;15.256;2023-03-04T05:11:30;99603.34;;;0.66;91.46
70103;BME280;57470;50.034;15.256;2023-03-04T05:13:56;99605.00;;;0.70;91.16
70103;BME280;57470;50.034;15.256;2023-03-04T05:16:21;99607.13;;;0.56;92.10
70103;BME280;57470;50.034;15.256;2023-03-04T05:18:46;99607.88;;;0.61;91.68
70103;BME280;57470;50.034;15.256;2023-03-04T05:21:12;99608.53;;;0.69;91.42
70103;BME280;57470;50.034;15.256;2023-03-04T05:23:39;99612.69;;;0.77;91.54
70103;BME280;57470;50.034;15.256;2023-03-04T05:26:07;99611.91;;;0.73;91.12
70103;BME280;57470;50.034;15.256;2023-03-04T05:28:34;99616.44;;;0.66;91.08
70103;BME280;57470;50.034;15.256;2023-03-04T05:31:00;99623.38;;;0.69;91.34
70103;BME280;57470;50.034;15.256;2023-03-04T05:33:26;99623.22;;;0.73;91.05
70103;BME280;57470;50.034;15.256;2023-03-04T05:35:51;99628.50;;;0.72;91.30
70103;BME280;57470;50.034;15.256;2023-03-04T05:38:19;99622.34;;;0.74;91.04
70103;BME280;57470;50.034;15.256;2023-03-04T05:40:46;99624.38;;;0.63;91.67
70103;BME280;57470;50.034;15.256;2023-03-04T05:43:12;99618.44;;;0.57;91.49
70103;BME280;57470;50.034;15.256;2023-03-04T05:45:39;99621.69;;;0.66;91.25
70103;BME280;57470;50.034;15.256;2023-03-04T05:48:05;99626.84;;;0.69;91.01
70103;BME280;57470;50.034;15.256;2023-03-04T05:50:31;99623.56;;;0.61;90.85
70103;BME280;57470;50.034;15.256;2023-03-04T05:52:57;99625.63;;;0.49;91.54
70103;BME280;57470;50.034;15.256;2023-03-04T05:55:23;99630.34;;;0.68;91.39
70103;BME280;57470;50.034;15.256;2023-03-04T05:57:49;99628.81;;;0.61;91.78
70103;BME280;57470;50.034;15.256;2023-03-04T06:00:15;99629.69;;;0.60;91.62
70103;BME280;57470;50.034;15.256;2023-03-04T06:02:41;99633.16;;;0.62;91.65
70103;BME280;57470;50.034;15.256;2023-03-04T06:05:07;99632.03;;;0.71;91.30
70103;BME280;57470;50.034;15.256;2023-03-04T06:07:33;99627.19;;;0.56;91.09
70103;BME280;57470;50.034;15.256;2023-03-04T06:09:59;99631.66;;;0.52;91.38
70103;BME280;57470;50.034;15.256;2023-03-04T06:12:24;99634.72;;;0.68;90.73
70103;BME280;57470;50.034;15.256;2023-03-04T06:14:50;99634.84;;;0.63;90.72
70103;BME280;57470;50.034;15.256;2023-03-04T06:17:15;99642.03;;;0.55;91.50
70103;BME280;57470;50.034;15.256;2023-03-04T06:19:40;99635.00;;;0.57;91.69
70103;BME280;57470;50.034;15.256;2023-03-04T06:22:07;99640.13;;;0.62;91.46
70103;BME280;57470;50.034;15.256;2023-03-04T06:24:32;99635.81;;;0.59;91.31
70103;BME280;57470;50.034;15.256;2023-03-04T06:26:58;99637.81;;;0.50;92.21
70103;BME280;57470;50.034;15.256;2023-03-04T06:29:23;99640.06;;;0.63;91.61
70103;BME280;57470;50.034;15.256;2023-03-04T06:31:49;99640.00;;;0.66;91.05
70103;BME280;57470;50.034;15.256;2023-03-04T06:34:14;99647.13;;;0.61;90.66
70103;BME280;57470;50.034;15.256;2023-03-04T06:36:39;99645.41;;;0.60;90.61
70103;BME280;57470;50.034;15.256;2023-03-04T06:39:05;99647.03;;;0.64;90.43
70103;BME280;57470;50.034;15.256;2023-03-04T06:41:31;99655.28;;;0.82;90.01
70103;BME280;57470;50.034;15.256;2023-03-04T06:43:57;99652.56;;;0.86;89.94
70103;BME280;57470;50.034;15.256;2023-03-04T06:46:23;99657.41;;;0.69;90.63
70103;BME280;57470;50.034;15.256;2023-03-04T06:48:48;99660.44;;;0.86;89.67
70103;BME280;57470;50.034;15.256;2023-03-04T06:51:14;99659.94;;;1.04;88.99
70103;BME280;57470;50.034;15.256;2023-03-04T06:53:40;99654.16;;;0.92;89.10
70103;BME280;57470;50.034;15.256;2023-03-04T06:56:07;99655.56;;;1.05;88.44
70103;BME280;57470;50.034;15.256;2023-03-04T06:58:33;99651.91;;;1.10;88.07
70103;BME280;57470;50.034;15.256;2023-03-04T07:01:17;99651.94;;;1.09;87.63
70103;BME280;57470;50.034;15.256;2023-03-04T07:03:43;99657.75;;;1.20;87.23
70103;BME280;57470;50.034;15.256;2023-03-04T07:06:14;99651.34;;;1.30;86.90
70103;BME280;57470;50.034;15.256;2023-03-04T07:08:40;99653.38;;;1.21;87.57
70103;BME280;57470;50.034;15.256;2023-03-04T07:11:06;99655.03;;;1.25;87.48
70103;BME280;57470;50.034;15.256;2023-03-04T07:13:31;99662.09;;;1.21;87.03
70103;BME280;57470;50.034;15.256;2023-03-04T07:15:59;99658.88;;;1.11;87.21
70103;BME280;57470;50.034;15.256;2023-03-04T07:18:25;99657.75;;;1.20;87.04
70103;BME280;57470;50.034;15.256;2023-03-04T07:20:51;99655.03;;;1.25;87.17
70103;BME280;57470;50.034;15.256;2023-03-04T07:23:17;99657.63;;;1.56;86.98
70103;BME280;57470;50.034;15.256;2023-03-04T07:25:43;99654.31;;;1.49;86.41
70103;BME280;57470;50.034;15.256;2023-03-04T07:28:08;99655.00;;;1.56;86.77
70103;BME280;57470;50.034;15.256;2023-03-04T07:30:34;99654.25;;;1.52;85.58
70103;BME280;57470;50.034;15.256;2023-03-04T07:32:59;99663.25;;;1.71;85.51
70103;BME280;57470;50.034;15.256;2023-03-04T07:35:24;99656.16;;;1.75;84.92
70103;BME280;57470;50.034;15.256;2023-03-04T07:37:50;99662.31;;;1.74;85.03
70103;BME280;57470;50.034;15.256;2023-03-04T07:40:15;99657.84;;;1.48;85.85
70103;BME280;57470;50.034;15.256;2023-03-04T07:42:40;99656.56;;;1.61;85.29
70103;BME280;57470;50.034;15.256;2023-03-04T07:45:06;99652.38;;;1.56;85.67
70103;BME280;57470;50.034;15.256;2023-03-04T07:47:32;99652.31;;;1.57;85.85
70103;BME280;57470;50.034;15.256;2023-03-04T07:49:58;99650.53;;;1.59;85.42
70103;BME280;57470;50.034;15.256;2023-03-04T07:52:23;99660.88;;;1.64;85.55
70103;BME280;57470;50.034;15.256;2023-03-04T07:54:49;99654.59;;;1.69;85.81
70103;BME280;57470;50.034;15.256;2023-03-04T07:57:14;99649.75;;;1.56;85.80
70103;BME280;57470;50.034;15.256;2023-03-04T07:59:39;99650.94;;;1.75;84.96
70103;BME280;57470;50.034;15.256;2023-03-04T08:02:05;99654.72;;;1.65;84.97
70103;BME280;57470;50.034;15.256;2023-03-04T08:04:31;99652.94;;;1.95;84.14
70103;BME280;57470;50.034;15.256;2023-03-04T08:06:56;99651.84;;;2.02;83.45
70103;BME280;57470;50.034;15.256;2023-03-04T08:09:22;99655.06;;;1.82;82.88
70103;BME280;57470;50.034;15.256;2023-03-04T08:11:47;99652.16;;;1.91;83.04
70103;BME280;57470;50.034;15.256;2023-03-04T08:14:13;99646.22;;;1.86;83.20
70103;BME280;57470;50.034;15.256;2023-03-04T08:16:39;99652.50;;;1.80;83.34
70103;BME280;57470;50.034;15.256;2023-03-04T08:19:04;99652.50;;;1.80;83.59
70103;BME280;57470;50.034;15.256;2023-03-04T08:21:30;99650.34;;;1.95;82.98
70103;BME280;57470;50.034;15.256;2023-03-04T08:23:58;99647.72;;;1.95;82.57
70103;BME280;57470;50.034;15.256;2023-03-04T08:26:31;99661.09;;;1.85;82.93
70103;BME280;57470;50.034;15.256;2023-03-04T08:29:00;99660.03;;;1.91;83.08
70103;BME280;57470;50.034;15.256;2023-03-04T08:31:26;99660.91;;;1.92;82.89
70103;BME280;57470;50.034;15.256;2023-03-04T08:33:52;99658.66;;;2.07;82.87
70103;BME280;57470;50.034;15.256;2023-03-04T08:36:17;99657.06;;;2.03;83.52
70103;BME280;57470;50.034;15.256;2023-03-04T08:38:43;99662.19;;;2.06;83.38
70103;BME280;57470;50.034;15.256;2023-03-04T08:41:08;99646.94;;;1.91;83.06
70103;BME280;57470;50.034;15.256;2023-03-04T08:43:34;99649.19;;;2.03;83.26
70103;BME280;57470;50.034;15.256;2023-03-04T08:46:00;99644.69;;;2.07;82.90
70103;BME280;57470;50.034;15.256;2023-03-04T08:48:25;99646.84;;;1.94;83.24
70103;BME280;57470;50.034;15.256;2023-03-04T08:50:51;99645.91;;;1.97;83.18
70103;BME280;57470;50.034;15.256;2023-03-04T08:53:17;99645.53;;;2.07;82.60
70103;BME280;57470;50.034;15.256;2023-03-04T08:55:43;99640.53;;;2.28;82.37
70103;BME280;57470;50.034;15.256;2023-03-04T08:58:08;99650.25;;;2.24;82.60
70103;BME280;57470;50.034;15.256;2023-03-04T09:00:36;99637.38;;;2.16;82.45
70103;BME280;57470;50.034;15.256;2023-03-04T09:03:02;99636.72;;;2.10;82.89
70103;BME280;57470;50.034;15.256;2023-03-04T09:05:28;99638.50;;;2.36;82.65
70103;BME280;57470;50.034;15.256;2023-03-04T09:07:54;99638.94;;;2.23;81.98
70103;BME280;57470;50.034;15.256;2023-03-04T09:10:19;99636.47;;;2.17;82.86
70103;BME280;57470;50.034;15.256;2023-03-04T09:12:45;99641.75;;;2.44;82.46
70103;BME280;57470;50.034;15.256;2023-03-04T09:15:11;99637.56;;;2.38;82.07
70103;BME280;57470;50.034;15.256;2023-03-04T09:17:37;99634.13;;;2.36;82.11
70103;BME280;57470;50.034;15.256;2023-03-04T09:20:03;99636.72;;;2.10;82.08
70103;BME280;57470;50.034;15.256;2023-03-04T09:22:28;99631.09;;;2.48;81.67
70103;BME280;57470;50.034;15.256;2023-03-04T09:24:54;99640.69;;;2.49;82.16
70103;BME280;57470;50.034;15.256;2023-03-04T09:27:19;99640.31;;;2.34;81.69
70103;BME280;57470;50.034;15.256;2023-03-04T09:29:45;99631.63;;;2.59;81.40
70103;BME280;57470;50.034;15.256;2023-03-04T09:32:10;99634.88;;;2.40;81.95
70103;BME280;57470;50.034;15.256;2023-03-04T09:34:36;99642.75;;;2.66;80.92
70103;BME280;57470;50.034;15.256;2023-03-04T09:37:01;99636.38;;;2.73;81.14
70103;BME280;57470;50.034;15.256;2023-03-04T09:39:26;99635.44;;;2.76;80.26
70103;BME280;57470;50.034;15.256;2023-03-04T09:41:54;99633.53;;;2.79;80.03
70103;BME280;57470;50.034;15.256;2023-03-04T09:44:32;99631.13;;;2.73;80.70
70103;BME280;57470;50.034;15.256;2023-03-04T09:47:01;99622.59;;;2.67;80.84
70103;BME280;57470;50.034;15.256;2023-03-04T09:49:27;99615.78;;;2.61;80.90
70103;BME280;57470;50.034;15.256;2023-03-04T09:51:58;99610.81;;;2.78;80.47
70103;BME280;57470;50.034;15.256;2023-03-04T09:59:54;99605.69;;;2.75;79.67
70103;BME280;57470;50.034;15.256;2023-03-04T10:02:34;99610.16;;;3.21;79.76
70103;BME280;57470;50.034;15.256;2023-03-04T10:05:05;99601.00;;;3.31;79.29
70103;BME280;57470;50.034;15.256;2023-03-04T10:07:37;99602.88;;;3.51;79.35
70103;BME280;57470;50.034;15.256;2023-03-04T10:10:38;99599.34;;;3.52;77.71
70103;BME280;57470;50.034;15.256;2023-03-04T10:13:14;99596.59;;;3.55;77.97
70103;BME280;57470;50.034;15.256;2023-03-04T10:15:44;99592.16;;;3.57;77.37
70103;BME280;57470;50.034;15.256;2023-03-04T10:18:19;99587.31;;;3.68;77.96
70103;BME280;57470;50.034;15.256;2023-03-04T10:21:05;99578.03;;;3.82;77.59
70103;BME280;57470;50.034;15.256;2023-03-04T10:23:34;99585.75;;;3.86;77.85
70103;BME280;57470;50.034;15.256;2023-03-04T10:26:12;99579.75;;;4.04;77.55
70103;BME280;57470;50.034;15.256;2023-03-04T10:28:38;99575.28;;;4.06;77.29
70103;BME280;57470;50.034;15.256;2023-03-04T10:33:38;99573.69;;;4.24;77.07
70103;BME280;57470;50.034;15.256;2023-03-04T10:36:24;99568.22;;;4.49;75.98
70103;BME280;57470;50.034;15.256;2023-03-04T10:39:15;99571.28;;;4.60;75.07
70103;BME280;57470;50.034;15.256;2023-03-04T10:41:44;99572.25;;;4.58;75.70
70103;BME280;57470;50.034;15.256;2023-03-04T10:46:39;99558.91;;;4.62;75.61
70103;BME280;57470;50.034;15.256;2023-03-04T10:49:05;99563.72;;;4.52;75.16
70103;BME280;57470;50.034;15.256;2023-03-04T10:51:30;99552.84;;;4.60;75.31
70103;BME280;57470;50.034;15.256;2023-03-04T10:53:56;99545.06;;;4.37;75.01
70103;BME280;57470;50.034;15.256;2023-03-04T11:07:23;99528.09;;;5.03;74.67
70103;BME280;57470;50.034;15.256;2023-03-04T11:09:49;99524.09;;;4.95;74.79
70103;BME280;57470;50.034;15.256;2023-03-04T11:12:16;99524.13;;;4.54;75.10
70103;BME280;57470;50.034;15.256;2023-03-04T11:14:48;99516.75;;;5.01;75.17
70103;BME280;57470;50.034;15.256;2023-03-04T11:17:22;99515.00;;;5.20;75.03
70103;BME280;57470;50.034;15.256;2023-03-04T11:20:15;99513.47;;;4.96;75.77
70103;BME280;57470;50.034;15.256;2023-03-04T11:22:44;99508.84;;;5.01;74.84
70103;BME280;57470;50.034;15.256;2023-03-04T11:25:40;99512.72;;;5.32;74.48
70103;BME280;57470;50.034;15.256;2023-03-04T11:28:21;99508.66;;;5.24;73.98
70103;BME280;57470;50.034;15.256;2023-03-04T11:30:52;99500.69;;;5.26;75.18
70103;BME280;57470;50.034;15.256;2023-03-04T11:33:25;99505.50;;;4.98;74.99
70103;BME280;57470;50.034;15.256;2023-03-04T11:35:56;99501.91;;;5.19;74.79
70103;BME280;57470;50.034;15.256;2023-03-04T11:38:46;99500.94;;;5.01;74.84
70103;BME280;57470;50.034;15.256;2023-03-04T11:41:18;99498.25;;;5.21;74.82
70103;BME280;57470;50.034;15.256;2023-03-04T11:43:45;99493.56;;;5.09;74.50
70103;BME280;57470;50.034;15.256;2023-03-04T11:46:18;99491.75;;;5.28;74.70
70103;BME280;57470;50.034;15.256;2023-03-04T11:51:35;99491.41;;;5.36;74.63
70103;BME280;57470;50.034;15.256;2023-03-04T11:56:42;99482.91;;;5.29;74.40
70103;BME280;57470;50.034;15.256;2023-03-04T11:59:16;99483.75;;;5.49;73.98
70103;BME280;57470;50.034;15.256;2023-03-04T12:07:51;99483.72;;;5.32;74.28
70103;BME280;57470;50.034;15.256;2023-03-04T12:10:37;99471.63;;;5.27;73.45
70103;BME280;57470;50.034;15.256;2023-03-04T12:16:01;99475.25;;;5.06;74.29
70103;BME280;57470;50.034;15.256;2023-03-04T12:26:58;99472.59;;;5.06;74.53
70103;BME280;57470;50.034;15.256;2023-03-04T12:29:52;99464.19;;;5.36;74.22
70103;BME280;57470;50.034;15.256;2023-03-04T12:32:46;99463.91;;;5.23;74.63
70103;BME280;57470;50.034;15.256;2023-03-04T12:35:37;99461.81;;;5.29;74.16
70103;BME280;57470;50.034;15.256;2023-03-04T12:38:14;99459.16;;;5.48;75.08
70103;BME280;57470;50.034;15.256;2023-03-04T12:40:57;99454.88;;;5.46;74.12
70103;BME280;57470;50.034;15.256;2023-03-04T12:46:10;99469.66;;;5.31;74.26
70103;BME280;57470;50.034;15.256;2023-03-04T12:56:38;99453.22;;;5.45;74.57
70103;BME280;57470;50.034;15.256;2023-03-04T12:59:05;99447.72;;;5.31;74.25
70103;BME280;57470;50.034;15.256;2023-03-04T13:01:41;99448.16;;;5.03;74.52
70103;BME280;57470;50.034;15.256;2023-03-04T13:04:30;99448.19;;;5.39;74.45
70103;BME280;57470;50.034;15.256;2023-03-04T13:09:29;99440.25;;;5.21;73.93
70103;BME280;57470;50.034;15.256;2023-03-04T13:12:13;99432.44;;;5.37;74.26
70103;BME280;57470;50.034;15.256;2023-03-04T13:20:21;99435.69;;;5.06;74.68
70103;BME280;57470;50.034;15.256;2023-03-04T13:25:42;99435.19;;;5.36;74.13
70103;BME280;57470;50.034;15.256;2023-03-04T13:28:15;99435.41;;;5.12;74.26
70103;BME280;57470;50.034;15.256;2023-03-04T13:36:02;99427.72;;;4.89;74.63
70103;BME280;57470;50.034;15.256;2023-03-04T13:51:36;99420.38;;;5.14;74.63
70103;BME280;57470;50.034;15.256;2023-03-04T13:59:28;99414.47;;;5.09;73.65
70103;BME280;57470;50.034;15.256;2023-03-04T14:04:41;99406.63;;;5.26;74.06
70103;BME280;57470;50.034;15.256;2023-03-04T14:07:27;99401.84;;;5.16;74.22
70103;BME280;57470;50.034;15.256;2023-03-04T14:12:34;99401.94;;;5.50;73.85
70103;BME280;57470;50.034;15.256;2023-03-04T14:15:03;99396.69;;;5.32;74.30
70103;BME280;57470;50.034;15.256;2023-03-04T14:17:32;99397.09;;;5.41;74.15
70103;BME280;57470;50.034;15.256;2023-03-04T14:20:02;99402.00;;;5.49;73.99
70103;BME280;57470;50.034;15.256;2023-03-04T14:22:31;99393.28;;;5.47;74.24
70103;BME280;57470;50.034;15.256;2023-03-04T14:24:58;99396.03;;;5.45;73.95
70103;BME280;57470;50.034;15.256;2023-03-04T14:27:24;99394.56;;;5.21;74.75
70103;BME280;57470;50.034;15.256;2023-03-04T14:30:00;99398.56;;;5.47;74.63
70103;BME280;57470;50.034;15.256;2023-03-04T14:32:27;99392.84;;;5.56;74.26
70103;BME280;57470;50.034;15.256;2023-03-04T14:34:57;99391.31;;;5.52;74.90
70103;BME280;57470;50.034;15.256;2023-03-04T14:37:27;99391.50;;;5.47;75.25
70103;BME280;57470;50.034;15.256;2023-03-04T14:39:57;99387.25;;;5.45;75.79